sensor_id;sensor_type;location;lat;lon;timestamp;pressure;altitude;pressure_sealevel;temperature;humidity
30714;BME280;17465;47.934;33.430;2023-03-14T00:00:26;57283.83;;;-140.43;51.79
30714;BME280;17465;47.934;33.430;2023-03-14T00:02:56;57283.83;;;-140.43;51.79
30714;BME280;17465;47.934;33.430;2023-03-14T00:05:27;57312.43;;;-140.43;51.21
30714;BME280;17465;47.934;33.430;2023-03-14T00:07:59;57315.61;;;-140.43;51.43
30714;BME280;17465;47.934;33.430;2023-03-14T00:10:30;57324.07;;;-140.43;51.36
30714;BME280;17465;47.934;33.430;2023-03-14T00:13:02;57324.07;;;-140.43;51.36
30714;BME280;17465;47.934;33.430;2023-03-14T00:15:33;57308.19;;;-140.43;51.34
30714;BME280;17465;47.934;33.430;2023-03-14T00:18:04;57306.07;;;-140.43;51.12
30714;BME280;17465;47.934;33.430;2023-03-14T00:20:36;57325.14;;;-140.43;51.53
30714;BME280;17465;47.934;33.430;2023-03-14T00:23:08;57325.14;;;-140.43;51.18
30714;BME280;17465;47.934;33.430;2023-03-14T00:25:38;57307.13;;;-140.43;51.40
30714;BME280;17465;47.934;33.430;2023-03-14T00:28:09;57310.31;;;-140.43;51.50
30714;BME280;17465;47.934;33.430;2023-03-14T00:30:40;57310.31;;;-140.43;51.50
30714;BME280;17465;47.934;33.430;2023-03-14T00:33:11;57327.25;;;-140.43;51.64
30714;BME280;17465;47.934;33.430;2023-03-14T00:35:42;57333.61;;;-140.43;51.53
30714;BME280;17465;47.934;33.430;2023-03-14T00:38:12;57298.66;;;-140.43;51.03
30714;BME280;17465;47.934;33.430;2023-03-14T00:40:43;57315.61;;;-140.43;51.35
30714;BME280;17465;47.934;33.430;2023-03-14T00:43:14;57301.84;;;-140.43;51.50
30714;BME280;17465;47.934;33.430;2023-03-14T00:45:44;57310.31;;;-140.43;51.74
30714;BME280;17465;47.934;33.430;2023-03-14T00:48:14;57329.37;;;-140.43;51.95
30714;BME280;17465;47.934;33.430;2023-03-14T00:50:46;57315.61;;;-140.43;52.03
30714;BME280;17465;47.934;33.430;2023-03-14T00:53:17;57302.89;;;-140.43;52.22
30714;BME280;17465;47.934;33.430;2023-03-14T00:55:48;57328.31;;;-140.43;52.42
30714;BME280;17465;47.934;33.430;2023-03-14T00:58:18;57328.31;;;-140.43;52.19
30714;BME280;17465;47.934;33.430;2023-03-14T01:00:49;57329.37;;;-140.43;52.17
30714;BME280;17465;47.934;33.430;2023-03-14T01:03:20;57310.31;;;-140.43;52.88
30714;BME280;17465;47.934;33.430;2023-03-14T01:05:51;57333.61;;;-140.43;53.09
30714;BME280;17465;47.934;33.430;2023-03-14T01:08:22;57334.67;;;-140.43;53.77
30714;BME280;17465;47.934;33.430;2023-03-14T01:10:52;57315.61;;;-140.43;54.50
30714;BME280;17465;47.934;33.430;2023-03-14T01:13:23;57315.61;;;-140.43;54.50
30714;BME280;17465;47.934;33.430;2023-03-14T01:15:53;57328.31;;;-140.43;55.40
30714;BME280;17465;47.934;33.430;2023-03-14T01:18:24;57312.43;;;-140.43;55.74
30714;BME280;17465;47.934;33.430;2023-03-14T01:20:54;57330.43;;;-140.43;56.15
30714;BME280;17465;47.934;33.430;2023-03-14T01:23:25;57325.14;;;-140.43;56.98
30714;BME280;17465;47.934;33.430;2023-03-14T01:25:55;57298.66;;;-140.43;57.62
30714;BME280;17465;47.934;33.430;2023-03-14T01:28:26;57298.66;;;-140.43;57.62
30714;BME280;17465;47.934;33.430;2023-03-14T01:31:02;57295.48;;;-140.43;58.34
30714;BME280;17465;47.934;33.430;2023-03-14T01:33:30;57339.96;;;-140.43;59.23
30714;BME280;17465;47.934;33.430;2023-03-14T01:36:00;57308.19;;;-140.43;59.33
30714;BME280;17465;47.934;33.430;2023-03-14T01:38:32;57308.19;;;-140.43;59.33
30714;BME280;17465;47.934;33.430;2023-03-14T01:41:04;57326.20;;;-140.43;60.11
30714;BME280;17465;47.934;33.430;2023-03-14T01:43:35;57327.25;;;-140.43;60.00
30714;BME280;17465;47.934;33.430;2023-03-14T01:51:19;57354.79;;;-140.43;60.23
30714;BME280;17465;47.934;33.430;2023-03-14T01:53:51;57325.14;;;-140.43;61.00
30714;BME280;17465;47.934;33.430;2023-03-14T01:56:23;57327.25;;;-140.43;60.63
30714;BME280;17465;47.934;33.430;2023-03-14T01:58:54;57327.25;;;-140.43;60.63
30714;BME280;17465;47.934;33.430;2023-03-14T02:01:25;57295.48;;;-140.43;60.81
30714;BME280;17465;47.934;33.430;2023-03-14T02:03:59;57315.61;;;-140.43;61.50
30714;BME280;17465;47.934;33.430;2023-03-14T02:06:50;57329.37;;;-140.43;61.88
30714;BME280;17465;47.934;33.430;2023-03-14T02:09:19;57329.37;;;-140.43;61.88
30714;BME280;17465;47.934;33.430;2023-03-14T02:11:51;57342.08;;;-140.43;61.97
30714;BME280;17465;47.934;33.430;2023-03-14T02:14:32;57335.73;;;-140.43;62.39
30714;BME280;17465;47.934;33.430;2023-03-14T02:16:58;57327.25;;;-140.43;63.05
30714;BME280;17465;47.934;33.430;2023-03-14T02:19:44;57327.25;;;-140.43;63.05
30714;BME280;17465;47.934;33.430;2023-03-14T02:22:12;57327.25;;;-140.43;63.81
30714;BME280;17465;47.934;33.430;2023-03-14T02:25:06;57327.25;;;-140.43;63.81
30714;BME280;17465;47.934;33.430;2023-03-14T02:27:42;57319.84;;;-140.43;63.69
30714;BME280;17465;47.934;33.430;2023-03-14T02:30:17;57299.72;;;-140.43;64.15
30714;BME280;17465;47.934;33.430;2023-03-14T02:32:56;57299.72;;;-140.43;64.15
30714;BME280;17465;47.934;33.430;2023-03-14T02:35:26;57313.48;;;-140.43;64.62
30714;BME280;17465;47.934;33.430;2023-03-14T02:40:39;57346.32;;;-140.43;65.31
30714;BME280;17465;47.934;33.430;2023-03-14T02:43:10;57333.61;;;-140.43;65.76
30714;BME280;17465;47.934;33.430;2023-03-14T02:45:48;57333.61;;;-140.43;66.24
30714;BME280;17465;47.934;33.430;2023-03-14T02:48:21;57333.61;;;-140.43;66.24
30714;BME280;17465;47.934;33.430;2023-03-14T02:50:59;57344.20;;;-140.43;66.14
30714;BME280;17465;47.934;33.430;2023-03-14T02:56:16;57310.31;;;-140.43;66.74
30714;BME280;17465;47.934;33.430;2023-03-14T02:58:47;57313.48;;;-140.43;66.17
30714;BME280;17465;47.934;33.430;2023-03-14T03:01:18;57313.48;;;-140.43;66.17
30714;BME280;17465;47.934;33.430;2023-03-14T03:03:50;57327.25;;;-140.43;66.16
30714;BME280;17465;47.934;33.430;2023-03-14T03:06:21;57327.25;;;-140.43;66.16
30714;BME280;17465;47.934;33.430;2023-03-14T03:08:52;57310.31;;;-140.43;65.83
30714;BME280;17465;47.934;33.430;2023-03-14T03:11:22;57335.73;;;-140.43;66.08
30714;BME280;17465;47.934;33.430;2023-03-14T03:13:53;57343.14;;;-140.43;66.26
30714;BME280;17465;47.934;33.430;2023-03-14T03:16:24;57339.96;;;-140.43;66.08
30714;BME280;17465;47.934;33.430;2023-03-14T03:18:56;57303.95;;;-140.43;66.04
30714;BME280;17465;47.934;33.430;2023-03-14T03:21:27;57316.66;;;-140.43;65.96
30714;BME280;17465;47.934;33.430;2023-03-14T03:23:59;57299.72;;;-140.43;65.87
30714;BME280;17465;47.934;33.430;2023-03-14T03:26:30;57299.72;;;-140.43;65.87
30714;BME280;17465;47.934;33.430;2023-03-14T03:29:00;57300.78;;;-140.43;66.10
30714;BME280;17465;47.934;33.430;2023-03-14T03:31:31;57308.19;;;-140.43;66.28
30714;BME280;17465;47.934;33.430;2023-03-14T03:34:01;57306.07;;;-140.43;66.27
30714;BME280;17465;47.934;33.430;2023-03-14T03:36:33;57334.67;;;-140.43;66.17
30714;BME280;17465;47.934;33.430;2023-03-14T03:39:04;57315.61;;;-140.43;66.25
30714;BME280;17465;47.934;33.430;2023-03-14T03:41:35;57315.61;;;-140.43;66.25
30714;BME280;17465;47.934;33.430;2023-03-14T03:44:05;57321.96;;;-140.43;65.31
30714;BME280;17465;47.934;33.430;2023-03-14T03:46:36;57326.20;;;-140.43;65.46
30714;BME280;17465;47.934;33.430;2023-03-14T03:49:06;57326.20;;;-140.43;65.46
30714;BME280;17465;47.934;33.430;2023-03-14T03:51:37;57331.49;;;-140.43;64.95
30714;BME280;17465;47.934;33.430;2023-03-14T03:54:08;57318.78;;;-140.43;64.81
30714;BME280;17465;47.934;33.430;2023-03-14T03:56:39;57331.49;;;-140.43;64.58
30714;BME280;17465;47.934;33.430;2023-03-14T03:59:10;57326.20;;;-140.43;64.21
30714;BME280;17465;47.934;33.430;2023-03-14T04:01:40;57326.20;;;-140.43;64.21
30714;BME280;17465;47.934;33.430;2023-03-14T04:04:11;57324.07;;;-140.43;63.96
30714;BME280;17465;47.934;33.430;2023-03-14T04:06:42;57351.61;;;-140.43;63.74
30714;BME280;17465;47.934;33.430;2023-03-14T04:09:13;57351.61;;;-140.43;63.74
30714;BME280;17465;47.934;33.430;2023-03-14T04:11:44;57330.43;;;-140.43;63.23
30714;BME280;17465;47.934;33.430;2023-03-14T04:14:15;57338.90;;;-140.43;63.09
30714;BME280;17465;47.934;33.430;2023-03-14T04:16:45;57332.55;;;-140.43;62.19
30714;BME280;17465;47.934;33.430;2023-03-14T04:19:17;57318.78;;;-140.43;61.54
30714;BME280;17465;47.934;33.430;2023-03-14T04:21:47;57318.78;;;-140.43;61.54
30714;BME280;17465;47.934;33.430;2023-03-14T04:24:18;57344.20;;;-140.43;60.60
30714;BME280;17465;47.934;33.430;2023-03-14T04:26:49;57308.19;;;-140.43;60.86
30714;BME280;17465;47.934;33.430;2023-03-14T04:29:19;57330.43;;;-140.43;59.97
30714;BME280;17465;47.934;33.430;2023-03-14T04:31:50;57333.61;;;-140.43;59.69
30714;BME280;17465;47.934;33.430;2023-03-14T04:34:21;57339.96;;;-140.43;59.19
30714;BME280;17465;47.934;33.430;2023-03-14T04:36:51;57349.49;;;-140.43;59.04
30714;BME280;17465;47.934;33.430;2023-03-14T04:39:22;57306.07;;;-140.43;58.51
30714;BME280;17465;47.934;33.430;2023-03-14T04:41:52;57305.01;;;-140.43;58.88
30714;BME280;17465;47.934;33.430;2023-03-14T04:44:23;57333.61;;;-140.43;58.13
30714;BME280;17465;47.934;33.430;2023-03-14T04:46:53;57320.90;;;-140.43;58.20
30714;BME280;17465;47.934;33.430;2023-03-14T04:49:24;57344.20;;;-140.43;57.25
30714;BME280;17465;47.934;33.430;2023-03-14T04:51:56;57344.20;;;-140.43;57.25
30714;BME280;17465;47.934;33.430;2023-03-14T04:54:26;57316.66;;;-140.43;56.57
30714;BME280;17465;47.934;33.430;2023-03-14T04:56:57;57318.78;;;-140.43;56.41
30714;BME280;17465;47.934;33.430;2023-03-14T04:59:28;57335.73;;;-140.43;56.03
30714;BME280;17465;47.934;33.430;2023-03-14T05:01:58;57317.72;;;-140.43;55.77
30714;BME280;17465;47.934;33.430;2023-03-14T05:04:29;57327.25;;;-140.43;54.64
30714;BME280;17465;47.934;33.430;2023-03-14T05:09:50;57327.25;;;-140.43;53.72
30714;BME280;17465;47.934;33.430;2023-03-14T05:12:22;57324.07;;;-140.43;54.19
30714;BME280;17465;47.934;33.430;2023-03-14T05:14:52;57313.48;;;-140.43;53.05
30714;BME280;17465;47.934;33.430;2023-03-14T05:17:23;57314.55;;;-140.43;52.36
30714;BME280;17465;47.934;33.430;2023-03-14T05:19:53;57341.02;;;-140.43;51.46
30714;BME280;17465;47.934;33.430;2023-03-14T05:22:24;57341.02;;;-140.43;51.46
30714;BME280;17465;47.934;33.430;2023-03-14T05:24:55;57328.31;;;-140.43;51.49
30714;BME280;17465;47.934;33.430;2023-03-14T05:27:25;57355.85;;;-140.43;50.86
30714;BME280;17465;47.934;33.430;2023-03-14T05:29:56;57355.85;;;-140.43;50.86
30714;BME280;17465;47.934;33.430;2023-03-14T05:32:27;57333.61;;;-140.43;50.64
30714;BME280;17465;47.934;33.430;2023-03-14T05:34:58;57299.72;;;-140.43;49.98
30714;BME280;17465;47.934;33.430;2023-03-14T05:37:30;57324.07;;;-140.43;49.06
30714;BME280;17465;47.934;33.430;2023-03-14T05:40:01;57325.14;;;-140.43;48.55
30714;BME280;17465;47.934;33.430;2023-03-14T05:42:32;57307.13;;;-140.43;47.92
30714;BME280;17465;47.934;33.430;2023-03-14T05:45:09;57297.60;;;-140.43;48.08
30714;BME280;17465;47.934;33.430;2023-03-14T05:47:39;57324.07;;;-140.43;47.53
30714;BME280;17465;47.934;33.430;2023-03-14T05:50:10;57324.07;;;-140.43;47.00
30714;BME280;17465;47.934;33.430;2023-03-14T05:52:41;57298.66;;;-140.43;47.34
30714;BME280;17465;47.934;33.430;2023-03-14T05:55:16;57287.01;;;-140.43;47.01
30714;BME280;17465;47.934;33.430;2023-03-14T05:57:52;57280.66;;;-140.43;46.08
30714;BME280;17465;47.934;33.430;2023-03-14T06:00:25;57280.66;;;-140.43;46.08
30714;BME280;17465;47.934;33.430;2023-03-14T06:02:55;57284.89;;;-140.43;43.46
30714;BME280;17465;47.934;33.430;2023-03-14T06:05:26;57272.18;;;-140.43;39.81
30714;BME280;17465;47.934;33.430;2023-03-14T06:07:57;57299.72;;;-140.43;38.98
30714;BME280;17465;47.934;33.430;2023-03-14T06:10:38;57299.72;;;-140.43;38.98
30714;BME280;17465;47.934;33.430;2023-03-14T06:13:09;57281.71;;;-140.43;38.20
30714;BME280;17465;47.934;33.430;2023-03-14T06:15:41;57280.66;;;-140.43;37.55
30714;BME280;17465;47.934;33.430;2023-03-14T06:18:12;57290.18;;;-140.43;37.51
30714;BME280;17465;47.934;33.430;2023-03-14T06:20:45;57249.95;;;-140.43;37.06
30714;BME280;17465;47.934;33.430;2023-03-14T06:23:16;57276.42;;;-140.43;36.67
30714;BME280;17465;47.934;33.430;2023-03-14T06:25:46;57296.54;;;-140.43;36.34
30714;BME280;17465;47.934;33.430;2023-03-14T06:28:16;57253.12;;;-140.43;36.76
30714;BME280;17465;47.934;33.430;2023-03-14T06:30:47;57282.77;;;-140.43;35.83
30714;BME280;17465;47.934;33.430;2023-03-14T06:33:19;57248.88;;;-140.43;35.46
30714;BME280;17465;47.934;33.430;2023-03-14T06:35:49;57235.12;;;-140.43;35.64
30714;BME280;17465;47.934;33.430;2023-03-14T06:38:20;57271.13;;;-140.43;35.15
30714;BME280;17465;47.934;33.430;2023-03-14T06:40:50;57275.36;;;-140.43;35.10
30714;BME280;17465;47.934;33.430;2023-03-14T06:43:21;57271.13;;;-140.43;34.59
30714;BME280;17465;47.934;33.430;2023-03-14T06:45:52;57264.77;;;-140.43;34.29
30714;BME280;17465;47.934;33.430;2023-03-14T06:48:22;57248.88;;;-140.43;34.21
30714;BME280;17465;47.934;33.430;2023-03-14T06:50:54;57278.54;;;-140.43;34.44
30714;BME280;17465;47.934;33.430;2023-03-14T06:53:25;57277.48;;;-140.43;33.81
30714;BME280;17465;47.934;33.430;2023-03-14T06:55:58;57295.48;;;-140.43;34.40
30714;BME280;17465;47.934;33.430;2023-03-14T06:58:29;57257.36;;;-140.43;33.70
30714;BME280;17465;47.934;33.430;2023-03-14T07:01:05;57257.36;;;-140.43;33.70
30714;BME280;17465;47.934;33.430;2023-03-14T07:03:36;57278.54;;;-140.43;32.65
30714;BME280;17465;47.934;33.430;2023-03-14T07:06:07;57270.06;;;-140.43;33.26
30714;BME280;17465;47.934;33.430;2023-03-14T07:08:38;57270.06;;;-140.43;33.26
30714;BME280;17465;47.934;33.430;2023-03-14T07:11:09;57273.24;;;-140.43;33.55
30714;BME280;17465;47.934;33.430;2023-03-14T07:13:40;57254.18;;;-140.43;32.88
30714;BME280;17465;47.934;33.430;2023-03-14T07:16:12;57261.59;;;-140.43;32.61
30714;BME280;17465;47.934;33.430;2023-03-14T07:18:42;57257.36;;;-140.43;32.28
30714;BME280;17465;47.934;33.430;2023-03-14T07:21:13;57257.36;;;-140.43;32.28
30714;BME280;17465;47.934;33.430;2023-03-14T07:23:45;57253.12;;;-140.43;32.12
30714;BME280;17465;47.934;33.430;2023-03-14T07:26:16;57267.95;;;-140.43;32.03
30714;BME280;17465;47.934;33.430;2023-03-14T07:28:47;57264.77;;;-140.43;31.85
30714;BME280;17465;47.934;33.430;2023-03-14T07:31:17;57264.77;;;-140.43;31.85
30714;BME280;17465;47.934;33.430;2023-03-14T07:33:48;57263.71;;;-140.43;32.02
30714;BME280;17465;47.934;33.430;2023-03-14T07:36:18;57296.54;;;-140.43;31.67
30714;BME280;17465;47.934;33.430;2023-03-14T07:38:49;57270.06;;;-140.43;31.67
30714;BME280;17465;47.934;33.430;2023-03-14T07:41:22;57259.47;;;-140.43;31.35
30714;BME280;17465;47.934;33.430;2023-03-14T07:43:53;57263.71;;;-140.43;31.24
30714;BME280;17465;47.934;33.430;2023-03-14T07:46:23;57269.00;;;-140.43;30.80
30714;BME280;17465;47.934;33.430;2023-03-14T07:48:54;57282.77;;;-140.43;31.34
30714;BME280;17465;47.934;33.430;2023-03-14T07:51:26;57276.42;;;-140.43;31.01
30714;BME280;17465;47.934;33.430;2023-03-14T07:53:57;57270.06;;;-140.43;30.94
30714;BME280;17465;47.934;33.430;2023-03-14T07:56:27;57252.06;;;-140.43;31.73
30714;BME280;17465;47.934;33.430;2023-03-14T07:58:59;57276.42;;;-140.43;31.20
30714;BME280;17465;47.934;33.430;2023-03-14T08:01:31;57269.00;;;-140.43;31.66
30714;BME280;17465;47.934;33.430;2023-03-14T08:04:04;57260.54;;;-140.43;31.30
30714;BME280;17465;47.934;33.430;2023-03-14T08:06:38;57282.77;;;-140.43;31.51
30714;BME280;17465;47.934;33.430;2023-03-14T08:09:09;57282.77;;;-140.43;31.51
30714;BME280;17465;47.934;33.430;2023-03-14T08:11:41;57253.12;;;-140.43;31.30
30714;BME280;17465;47.934;33.430;2023-03-14T08:14:13;57267.95;;;-140.43;30.88
30714;BME280;17465;47.934;33.430;2023-03-14T08:16:44;57299.72;;;-140.43;30.79
30714;BME280;17465;47.934;33.430;2023-03-14T08:19:15;57280.66;;;-140.43;30.95
30714;BME280;17465;47.934;33.430;2023-03-14T08:21:45;57283.83;;;-140.43;30.61
30714;BME280;17465;47.934;33.430;2023-03-14T08:24:16;57299.72;;;-140.43;30.80
30714;BME280;17465;47.934;33.430;2023-03-14T08:26:47;57287.01;;;-140.43;30.79
30714;BME280;17465;47.934;33.430;2023-03-14T08:29:17;57299.72;;;-140.43;30.17
30714;BME280;17465;47.934;33.430;2023-03-14T08:31:49;57285.95;;;-140.43;30.01
30714;BME280;17465;47.934;33.430;2023-03-14T08:34:20;57285.95;;;-140.43;30.01
30714;BME280;17465;47.934;33.430;2023-03-14T08:36:51;57279.59;;;-140.43;30.18
30714;BME280;17465;47.934;33.430;2023-03-14T08:39:22;57281.71;;;-140.43;29.93
30714;BME280;17465;47.934;33.430;2023-03-14T08:41:53;57279.59;;;-140.43;30.88
30714;BME280;17465;47.934;33.430;2023-03-14T08:44:24;57302.89;;;-140.43;30.31
30714;BME280;17465;47.934;33.430;2023-03-14T08:46:54;57251.00;;;-140.43;30.48
30714;BME280;17465;47.934;33.430;2023-03-14T08:49:26;57305.01;;;-140.43;30.82
30714;BME280;17465;47.934;33.430;2023-03-14T08:51:57;57308.19;;;-140.43;30.40
30714;BME280;17465;47.934;33.430;2023-03-14T08:54:30;57289.13;;;-140.43;29.76
30714;BME280;17465;47.934;33.430;2023-03-14T08:57:27;57276.42;;;-140.43;29.76
30714;BME280;17465;47.934;33.430;2023-03-14T09:00:01;57292.30;;;-140.43;29.28
30714;BME280;17465;47.934;33.430;2023-03-14T09:02:32;57305.01;;;-140.43;29.40
30714;BME280;17465;47.934;33.430;2023-03-14T09:05:09;57311.37;;;-140.43;28.54
30714;BME280;17465;47.934;33.430;2023-03-14T09:07:41;57311.37;;;-140.43;28.54
30714;BME280;17465;47.934;33.430;2023-03-14T09:13:03;57297.60;;;-140.43;29.72
30714;BME280;17465;47.934;33.430;2023-03-14T09:15:34;57319.84;;;-140.43;29.14
30714;BME280;17465;47.934;33.430;2023-03-14T09:18:04;57319.84;;;-140.43;29.14
30714;BME280;17465;47.934;33.430;2023-03-14T09:20:35;57323.02;;;-140.43;27.81
30714;BME280;17465;47.934;33.430;2023-03-14T09:23:06;57300.78;;;-140.43;28.11
30714;BME280;17465;47.934;33.430;2023-03-14T09:25:37;57337.84;;;-140.43;27.64
30714;BME280;17465;47.934;33.430;2023-03-14T09:28:08;57311.37;;;-140.43;28.70
30714;BME280;17465;47.934;33.430;2023-03-14T09:30:39;57311.37;;;-140.43;28.70
30714;BME280;17465;47.934;33.430;2023-03-14T09:33:10;57318.78;;;-140.43;28.26
30714;BME280;17465;47.934;33.430;2023-03-14T09:35:41;57328.31;;;-140.43;27.78
30714;BME280;17465;47.934;33.430;2023-03-14T09:38:11;57288.07;;;-140.43;28.01
30714;BME280;17465;47.934;33.430;2023-03-14T09:40:44;57312.43;;;-140.43;28.40
30714;BME280;17465;47.934;33.430;2023-03-14T09:43:21;57312.43;;;-140.43;28.40
30714;BME280;17465;47.934;33.430;2023-03-14T09:45:54;57303.95;;;-140.43;28.10
30714;BME280;17465;47.934;33.430;2023-03-14T09:48:29;57324.07;;;-140.43;28.42
30714;BME280;17465;47.934;33.430;2023-03-14T09:51:04;57319.84;;;-140.43;28.93
30714;BME280;17465;47.934;33.430;2023-03-14T09:53:46;57324.07;;;-140.43;28.93
30714;BME280;17465;47.934;33.430;2023-03-14T09:56:21;57347.38;;;-140.43;29.10
30714;BME280;17465;47.934;33.430;2023-03-14T09:58:57;57347.38;;;-140.43;29.10
30714;BME280;17465;47.934;33.430;2023-03-14T10:01:31;57325.14;;;-140.43;28.49
30714;BME280;17465;47.934;33.430;2023-03-14T10:04:10;57319.84;;;-140.43;28.91
30714;BME280;17465;47.934;33.430;2023-03-14T10:06:42;57319.84;;;-140.43;28.91
30714;BME280;17465;47.934;33.430;2023-03-14T10:09:17;57293.36;;;-140.43;28.80
30714;BME280;17465;47.934;33.430;2023-03-14T10:11:46;57320.90;;;-140.43;29.11
30714;BME280;17465;47.934;33.430;2023-03-14T10:14:31;57298.66;;;-140.43;29.26
30714;BME280;17465;47.934;33.430;2023-03-14T10:17:11;57305.01;;;-140.43;29.00
30714;BME280;17465;47.934;33.430;2023-03-14T10:19:57;57334.67;;;-140.43;28.78
30714;BME280;17465;47.934;33.430;2023-03-14T10:22:30;57300.78;;;-140.43;28.88
30714;BME280;17465;47.934;33.430;2023-03-14T10:25:05;57300.78;;;-140.43;28.88
30714;BME280;17465;47.934;33.430;2023-03-14T10:27:40;57324.07;;;-140.43;29.79
30714;BME280;17465;47.934;33.430;2023-03-14T10:30:27;57336.79;;;-140.43;30.13
30714;BME280;17465;47.934;33.430;2023-03-14T10:32:51;57336.79;;;-140.43;30.13
30714;BME280;17465;47.934;33.430;2023-03-14T10:35:25;57312.43;;;-140.43;30.38
30714;BME280;17465;47.934;33.430;2023-03-14T10:37:58;57328.31;;;-140.43;29.77
30714;BME280;17465;47.934;33.430;2023-03-14T10:40:37;57323.02;;;-140.43;29.18
30714;BME280;17465;47.934;33.430;2023-03-14T10:43:13;57303.95;;;-140.43;28.70
30714;BME280;17465;47.934;33.430;2023-03-14T10:45:57;57343.14;;;-140.43;29.13
30714;BME280;17465;47.934;33.430;2023-03-14T10:48:37;57297.60;;;-140.43;30.35
30714;BME280;17465;47.934;33.430;2023-03-14T10:51:25;57297.60;;;-140.43;30.35
30714;BME280;17465;47.934;33.430;2023-03-14T10:56:37;57298.66;;;-140.43;30.17
30714;BME280;17465;47.934;33.430;2023-03-14T10:59:15;57326.20;;;-140.43;30.52
30714;BME280;17465;47.934;33.430;2023-03-14T11:01:54;57370.68;;;-140.43;29.69
30714;BME280;17465;47.934;33.430;2023-03-14T11:07:14;57345.26;;;-140.43;28.82
30714;BME280;17465;47.934;33.430;2023-03-14T11:12:48;57379.15;;;-140.43;29.52
30714;BME280;17465;47.934;33.430;2023-03-14T11:15:32;57379.15;;;-140.43;29.52
30714;BME280;17465;47.934;33.430;2023-03-14T11:21:21;57355.85;;;-140.43;29.37
30714;BME280;17465;47.934;33.430;2023-03-14T11:36:06;57381.27;;;-140.43;28.62
30714;BME280;17465;47.934;33.430;2023-03-14T11:38:56;57354.79;;;-140.43;28.51
30714;BME280;17465;47.934;33.430;2023-03-14T11:41:37;57350.55;;;-140.43;30.06
30714;BME280;17465;47.934;33.430;2023-03-14T11:44:20;57350.55;;;-140.43;30.06
30714;BME280;17465;47.934;33.430;2023-03-14T11:49:45;57383.38;;;-140.43;28.39
30714;BME280;17465;47.934;33.430;2023-03-14T11:52:23;57383.38;;;-140.43;28.39
30714;BME280;17465;47.934;33.430;2023-03-14T11:54:58;57400.33;;;-140.43;28.13
30714;BME280;17465;47.934;33.430;2023-03-14T11:57:29;57370.68;;;-140.43;28.74
30714;BME280;17465;47.934;33.430;2023-03-14T12:00:18;57372.79;;;-140.43;27.79
30714;BME280;17465;47.934;33.430;2023-03-14T12:02:58;57356.91;;;-140.43;29.12
30714;BME280;17465;47.934;33.430;2023-03-14T12:08:39;57346.32;;;-140.43;27.70
30714;BME280;17465;47.934;33.430;2023-03-14T12:11:13;57346.32;;;-140.43;27.70
30714;BME280;17465;47.934;33.430;2023-03-14T12:13:46;57408.80;;;-140.43;27.16
30714;BME280;17465;47.934;33.430;2023-03-14T12:19:13;57395.03;;;-140.43;27.75
30714;BME280;17465;47.934;33.430;2023-03-14T12:21:44;57378.09;;;-140.43;27.48
30714;BME280;17465;47.934;33.430;2023-03-14T12:24:23;57378.09;;;-140.43;27.48
30714;BME280;17465;47.934;33.430;2023-03-14T12:26:56;57396.09;;;-140.43;27.27
30714;BME280;17465;47.934;33.430;2023-03-14T12:29:28;57370.68;;;-140.43;27.46
30714;BME280;17465;47.934;33.430;2023-03-14T12:32:07;57383.38;;;-140.43;27.67
30714;BME280;17465;47.934;33.430;2023-03-14T12:34:45;57364.32;;;-140.43;27.67
30714;BME280;17465;47.934;33.430;2023-03-14T12:37:28;57389.74;;;-140.43;28.06
30714;BME280;17465;47.934;33.430;2023-03-14T12:43:01;57339.96;;;-140.43;28.47
30714;BME280;17465;47.934;33.430;2023-03-14T12:45:33;57314.55;;;-140.43;29.86
30714;BME280;17465;47.934;33.430;2023-03-14T12:48:16;57342.08;;;-140.43;28.31
30714;BME280;17465;47.934;33.430;2023-03-14T12:50:53;57341.02;;;-140.43;28.13
30714;BME280;17465;47.934;33.430;2023-03-14T12:53:54;57341.02;;;-140.43;28.13
30714;BME280;17465;47.934;33.430;2023-03-14T12:59:29;57370.68;;;-140.43;28.74
30714;BME280;17465;47.934;33.430;2023-03-14T13:02:14;57370.68;;;-140.43;28.74
30714;BME280;17465;47.934;33.430;2023-03-14T13:04:48;57362.20;;;-140.43;28.55
30714;BME280;17465;47.934;33.430;2023-03-14T13:10:19;57351.61;;;-140.43;28.69
30714;BME280;17465;47.934;33.430;2023-03-14T13:15:45;57373.85;;;-140.43;27.96
30714;BME280;17465;47.934;33.430;2023-03-14T13:18:19;57378.09;;;-140.43;28.36
30714;BME280;17465;47.934;33.430;2023-03-14T13:23:40;57329.37;;;-140.43;28.96
30714;BME280;17465;47.934;33.430;2023-03-14T13:26:13;57329.37;;;-140.43;28.96
30714;BME280;17465;47.934;33.430;2023-03-14T13:28:45;57361.14;;;-140.43;29.31
30714;BME280;17465;47.934;33.430;2023-03-14T13:31:24;57356.91;;;-140.43;29.65
30714;BME280;17465;47.934;33.430;2023-03-14T13:34:00;57325.14;;;-140.43;29.80
30714;BME280;17465;47.934;33.430;2023-03-14T13:36:31;57331.49;;;-140.43;29.86
30714;BME280;17465;47.934;33.430;2023-03-14T13:39:09;57331.49;;;-140.43;29.86
30714;BME280;17465;47.934;33.430;2023-03-14T13:41:37;57334.67;;;-140.43;29.69
30714;BME280;17465;47.934;33.430;2023-03-14T13:44:26;57323.02;;;-140.43;29.91
30714;BME280;17465;47.934;33.430;2023-03-14T13:47:03;57336.79;;;-140.43;29.84
30714;BME280;17465;47.934;33.430;2023-03-14T13:49:39;57332.55;;;-140.43;30.43
30714;BME280;17465;47.934;33.430;2023-03-14T13:52:36;57299.72;;;-140.43;30.80
30714;BME280;17465;47.934;33.430;2023-03-14T13:55:16;57349.49;;;-140.43;30.70
30714;BME280;17465;47.934;33.430;2023-03-14T13:57:53;57301.84;;;-140.43;30.34
30714;BME280;17465;47.934;33.430;2023-03-14T14:00:25;57301.84;;;-140.43;30.34
30714;BME280;17465;47.934;33.430;2023-03-14T14:03:00;57267.95;;;-140.43;32.68